sensor_id;sensor_type;location;lat;lon;timestamp;pressure;altitude;pressure_sealevel;temperature;humidity
62544;BME280;48597;49.030;1.822;2022-10-22T00:01:26;100180.44;;;20.44;55.79
62544;BME280;48597;49.030;1.822;2022-10-22T00:03:52;100181.25;;;20.45;55.74
62544;BME280;48597;49.030;1.822;2022-10-22T00:06:18;100184.09;;;20.43;55.80
62544;BME280;48597;49.030;1.822;2022-10-22T00:08:43;100187.44;;;20.45;55.93
62544;BME280;48597;49.030;1.822;2022-10-22T00:11:12;100191.97;;;20.45;55.75
62544;BME280;48597;49.030;1.822;2022-10-22T00:13:38;100193.94;;;20.43;55.73
62544;BME280;48597;49.030;1.822;2022-10-22T00:16:04;100198.31;;;20.44;55.79
62544;BME280;48597;49.030;1.822;2022-10-22T00:18:30;100205.47;;;20.43;55.61
62544;BME280;48597;49.030;1.822;2022-10-22T00:20:55;100209.97;;;20.43;55.88
62544;BME280;48597;49.030;1.822;2022-10-22T00:23:21;100206.34;;;20.44;55.69
62544;BME280;48597;49.030;1.822;2022-10-22T00:25:46;100210.81;;;20.43;55.91
62544;BME280;48597;49.030;1.822;2022-10-22T00:28:11;100209.16;;;20.42;55.87
62544;BME280;48597;49.030;1.822;2022-10-22T00:30:37;100208.31;;;20.42;55.66
62544;BME280;48597;49.030;1.822;2022-10-22T00:33:02;100227.72;;;20.44;55.71
62544;BME280;48597;49.030;1.822;2022-10-22T00:35:28;100228.88;;;20.41;55.85
62544;BME280;48597;49.030;1.822;2022-10-22T00:37:53;100235.03;;;20.42;55.73
62544;BME280;48597;49.030;1.822;2022-10-22T00:40:19;100237.72;;;20.42;55.76
62544;BME280;48597;49.030;1.822;2022-10-22T00:42:44;100251.09;;;20.42;55.67
62544;BME280;48597;49.030;1.822;2022-10-22T00:48:01;100252.09;;;20.41;55.75
62544;BME280;48597;49.030;1.822;2022-10-22T00:52:58;100260.09;;;20.41;55.78
62544;BME280;48597;49.030;1.822;2022-10-22T00:55:25;100263.78;;;20.40;55.73
62544;BME280;48597;49.030;1.822;2022-10-22T17:45:20;100530.22;;;21.06;55.96
62544;BME280;48597;49.030;1.822;2022-10-22T17:47:46;100526.72;;;21.05;55.79
62544;BME280;48597;49.030;1.822;2022-10-22T17:50:13;100518.03;;;21.03;55.94
62544;BME280;48597;49.030;1.822;2022-10-22T17:52:38;100524.03;;;21.05;56.07
62544;BME280;48597;49.030;1.822;2022-10-22T17:55:03;100528.56;;;21.05;55.93
62544;BME280;48597;49.030;1.822;2022-10-22T17:57:29;100525.22;;;21.03;55.88
62544;BME280;48597;49.030;1.822;2022-10-22T17:59:54;100534.09;;;21.03;55.92
62544;BME280;48597;49.030;1.822;2022-10-22T18:02:20;100536.91;;;21.02;56.02
62544;BME280;48597;49.030;1.822;2022-10-22T18:04:49;100533.41;;;21.01;56.09
62544;BME280;48597;49.030;1.822;2022-10-22T18:07:15;100524.53;;;21.01;56.09
62544;BME280;48597;49.030;1.822;2022-10-22T18:09:40;100514.84;;;21.00;56.02
62544;BME280;48597;49.030;1.822;2022-10-22T18:12:07;100518.53;;;20.99;55.96
62544;BME280;48597;49.030;1.822;2022-10-22T18:14:32;100519.19;;;21.01;56.08
62544;BME280;48597;49.030;1.822;2022-10-22T18:17:00;100517.53;;;21.00;56.17
62544;BME280;48597;49.030;1.822;2022-10-22T18:19:26;100511.34;;;20.99;55.94
62544;BME280;48597;49.030;1.822;2022-10-22T18:21:52;100506.81;;;21.00;56.11
62544;BME280;48597;49.030;1.822;2022-10-22T18:24:17;100507.84;;;20.99;56.05
62544;BME280;48597;49.030;1.822;2022-10-22T18:26:43;100513.19;;;20.99;56.22
62544;BME280;48597;49.030;1.822;2022-10-22T18:29:13;100513.34;;;20.97;56.08
62544;BME280;48597;49.030;1.822;2022-10-22T18:36:29;100520.34;;;20.98;56.11
62544;BME280;48597;49.030;1.822;2022-10-22T18:38:58;100520.53;;;20.97;56.07
62544;BME280;48597;49.030;1.822;2022-10-22T18:43:55;100534.91;;;20.96;56.07
62544;BME280;48597;49.030;1.822;2022-10-22T18:46:20;100534.06;;;20.95;56.13
62544;BME280;48597;49.030;1.822;2022-10-22T18:48:48;100528.03;;;20.93;56.10
62544;BME280;48597;49.030;1.822;2022-10-22T18:51:14;100529.69;;;20.94;56.16
62544;BME280;48597;49.030;1.822;2022-10-22T18:53:39;100524.34;;;20.94;56.07
62544;BME280;48597;49.030;1.822;2022-10-22T18:56:07;100532.56;;;20.93;56.11
62544;BME280;48597;49.030;1.822;2022-10-22T18:58:40;100528.88;;;20.94;56.13
62544;BME280;48597;49.030;1.822;2022-10-22T19:01:13;100525.53;;;20.92;56.15
62544;BME280;48597;49.030;1.822;2022-10-22T19:03:39;100527.19;;;20.93;56.25
62544;BME280;48597;49.030;1.822;2022-10-22T19:06:05;100517.50;;;20.92;56.22
62544;BME280;48597;49.030;1.822;2022-10-22T19:08:30;100514.84;;;20.92;56.07
62544;BME280;48597;49.030;1.822;2022-10-22T19:10:56;100506.97;;;20.90;56.23
62544;BME280;48597;49.030;1.822;2022-10-22T19:13:22;100514.84;;;20.92;56.41
62544;BME280;48597;49.030;1.822;2022-10-22T19:15:50;100518.53;;;20.91;56.43
62544;BME280;48597;49.030;1.822;2022-10-22T19:18:15;100516.69;;;20.91;56.24
62544;BME280;48597;49.030;1.822;2022-10-22T19:20:40;100521.19;;;20.91;56.30
62544;BME280;48597;49.030;1.822;2022-10-22T19:23:06;100523.00;;;20.90;56.27
62544;BME280;48597;49.030;1.822;2022-10-22T19:25:32;100525.88;;;20.89;56.56
62544;BME280;48597;49.030;1.822;2022-10-22T19:27:58;100527.53;;;20.90;56.36
62544;BME280;48597;49.030;1.822;2022-10-22T19:30:23;100524.84;;;20.90;56.27
62544;BME280;48597;49.030;1.822;2022-10-22T19:32:48;100528.53;;;20.89;56.34
62544;BME280;48597;49.030;1.822;2022-10-22T19:35:14;100528.53;;;20.89;56.46
62544;BME280;48597;49.030;1.822;2022-10-22T19:37:40;100512.66;;;20.87;56.59
62544;BME280;48597;49.030;1.822;2022-10-22T19:40:06;100515.16;;;20.89;56.50
62544;BME280;48597;49.030;1.822;2022-10-22T19:42:32;100505.63;;;20.86;56.23
62544;BME280;48597;49.030;1.822;2022-10-22T19:44:58;100506.44;;;20.87;56.59
62544;BME280;48597;49.030;1.822;2022-10-22T19:47:23;100519.81;;;20.87;56.39
62544;BME280;48597;49.030;1.822;2022-10-22T19:49:48;100518.16;;;20.86;56.15
62544;BME280;48597;49.030;1.822;2022-10-22T19:52:14;100526.19;;;20.86;56.38
62544;BME280;48597;49.030;1.822;2022-10-22T19:54:39;100520.84;;;20.86;56.30
62544;BME280;48597;49.030;1.822;2022-10-22T19:57:06;100521.84;;;20.84;56.45
62544;BME280;48597;49.030;1.822;2022-10-22T19:59:32;100516.50;;;20.84;56.32
62544;BME280;48597;49.030;1.822;2022-10-22T20:01:59;100512.97;;;20.84;56.27
62544;BME280;48597;49.030;1.822;2022-10-22T20:04:24;100512.97;;;20.84;56.29
62544;BME280;48597;49.030;1.822;2022-10-22T20:06:53;100508.78;;;20.81;56.49
62544;BME280;48597;49.030;1.822;2022-10-22T20:09:18;100505.09;;;20.82;56.31
62544;BME280;48597;49.030;1.822;2022-10-22T20:11:44;100500.75;;;20.81;56.25
62544;BME280;48597;49.030;1.822;2022-10-22T20:14:10;100502.59;;;20.81;56.12
62544;BME280;48597;49.030;1.822;2022-10-22T20:16:36;100500.75;;;20.81;56.34
62544;BME280;48597;49.030;1.822;2022-10-22T20:19:04;100496.44;;;20.80;56.26
62544;BME280;48597;49.030;1.822;2022-10-22T20:21:29;100497.25;;;20.81;56.26
62544;BME280;48597;49.030;1.822;2022-10-22T20:23:56;100503.63;;;20.80;56.26
62544;BME280;48597;49.030;1.822;2022-10-22T20:26:22;100507.13;;;20.80;56.28
62544;BME280;48597;49.030;1.822;2022-10-22T20:28:49;100505.47;;;20.79;56.24
62544;BME280;48597;49.030;1.822;2022-10-22T20:31:17;100509.81;;;20.80;56.21
62544;BME280;48597;49.030;1.822;2022-10-22T20:33:44;100509.97;;;20.79;56.37
62544;BME280;48597;49.030;1.822;2022-10-22T20:36:16;100496.75;;;20.77;56.28
62544;BME280;48597;49.030;1.822;2022-10-22T20:38:42;100503.75;;;20.78;56.23
62544;BME280;48597;49.030;1.822;2022-10-22T20:41:10;100509.09;;;20.78;56.28
62544;BME280;48597;49.030;1.822;2022-10-22T20:43:36;100513.63;;;20.78;56.30
62544;BME280;48597;49.030;1.822;2022-10-22T20:46:02;100517.31;;;20.77;56.22
62544;BME280;48597;49.030;1.822;2022-10-22T20:48:28;100507.63;;;20.76;56.38
62544;BME280;48597;49.030;1.822;2022-10-22T20:50:56;100511.97;;;20.77;56.19
62544;BME280;48597;49.030;1.822;2022-10-22T20:53:22;100508.44;;;20.76;56.35
62544;BME280;48597;49.030;1.822;2022-10-22T20:55:49;100511.13;;;20.76;56.38
62544;BME280;48597;49.030;1.822;2022-10-22T20:58:16;100512.97;;;20.76;56.12
62544;BME280;48597;49.030;1.822;2022-10-22T21:00:45;100504.13;;;20.75;56.26
62544;BME280;48597;49.030;1.822;2022-10-22T21:03:12;100502.28;;;20.76;56.21
62544;BME280;48597;49.030;1.822;2022-10-22T21:05:38;100502.41;;;20.74;56.25
62544;BME280;48597;49.030;1.822;2022-10-22T21:08:03;100496.25;;;20.74;56.30
62544;BME280;48597;49.030;1.822;2022-10-22T21:10:30;100501.59;;;20.74;56.45
62544;BME280;48597;49.030;1.822;2022-10-22T21:12:55;100493.56;;;20.74;56.29
62544;BME280;48597;49.030;1.822;2022-10-22T21:15:23;100492.06;;;20.71;56.28
62544;BME280;48597;49.030;1.822;2022-10-22T21:17:48;100492.06;;;20.71;56.09
62544;BME280;48597;49.030;1.822;2022-10-22T21:20:13;100497.41;;;20.71;56.26
62544;BME280;48597;49.030;1.822;2022-10-22T21:22:39;100492.91;;;20.72;56.13
62544;BME280;48597;49.030;1.822;2022-10-22T21:25:04;100493.88;;;20.71;56.26
62544;BME280;48597;49.030;1.822;2022-10-22T21:27:30;100485.03;;;20.70;56.10
62544;BME280;48597;49.030;1.822;2022-10-22T21:29:55;100488.53;;;20.71;56.13
62544;BME280;48597;49.030;1.822;2022-10-22T21:32:21;100493.06;;;20.70;56.16
62544;BME280;48597;49.030;1.822;2022-10-22T21:34:46;100490.38;;;20.70;56.35
62544;BME280;48597;49.030;1.822;2022-10-22T21:37:11;100491.38;;;20.69;56.15
62544;BME280;48597;49.030;1.822;2022-10-22T21:39:37;100488.88;;;20.68;56.38
62544;BME280;48597;49.030;1.822;2022-10-22T21:42:02;100482.53;;;20.69;56.31
62544;BME280;48597;49.030;1.822;2022-10-22T21:44:28;100482.72;;;20.67;56.09
62544;BME280;48597;49.030;1.822;2022-10-22T21:46:54;100479.16;;;20.67;55.98
62544;BME280;48597;49.030;1.822;2022-10-22T21:49:20;100481.84;;;20.67;56.31
62544;BME280;48597;49.030;1.822;2022-10-22T21:51:45;100486.22;;;20.68;56.50
62544;BME280;48597;49.030;1.822;2022-10-22T21:54:10;100479.16;;;20.67;56.57
62544;BME280;48597;49.030;1.822;2022-10-22T21:56:37;100482.72;;;20.67;56.97
62544;BME280;48597;49.030;1.822;2022-10-22T21:59:03;100473.81;;;20.67;57.15
62544;BME280;48597;49.030;1.822;2022-10-22T22:01:28;100473.81;;;20.67;57.25
62544;BME280;48597;49.030;1.822;2022-10-22T22:03:54;100473.69;;;20.68;57.02
62544;BME280;48597;49.030;1.822;2022-10-22T22:06:21;100471.00;;;20.68;57.04
62544;BME280;48597;49.030;1.822;2022-10-22T22:08:48;100471.00;;;20.68;56.98
62544;BME280;48597;49.030;1.822;2022-10-22T22:11:20;100471.00;;;20.68;57.10
62544;BME280;48597;49.030;1.822;2022-10-22T22:13:46;100460.31;;;20.68;57.05
62544;BME280;48597;49.030;1.822;2022-10-22T22:16:15;100455.97;;;20.67;57.08
62544;BME280;48597;49.030;1.822;2022-10-22T22:18:41;100454.28;;;20.66;56.92
62544;BME280;48597;49.030;1.822;2022-10-22T22:21:13;100454.97;;;20.68;56.97
62544;BME280;48597;49.030;1.822;2022-10-22T22:23:41;100454.13;;;20.68;56.78
62544;BME280;48597;49.030;1.822;2022-10-22T22:26:08;100444.41;;;20.67;56.65
62544;BME280;48597;49.030;1.822;2022-10-22T22:28:34;100446.25;;;20.66;56.73
62544;BME280;48597;49.030;1.822;2022-10-22T22:31:00;100440.06;;;20.66;56.66
62544;BME280;48597;49.030;1.822;2022-10-22T22:33:26;100440.91;;;20.66;56.39
62544;BME280;48597;49.030;1.822;2022-10-22T22:35:51;100434.72;;;20.66;56.52
62544;BME280;48597;49.030;1.822;2022-10-22T22:38:17;100433.72;;;20.67;56.58
62544;BME280;48597;49.030;1.822;2022-10-22T22:40:42;100432.88;;;20.66;56.51
62544;BME280;48597;49.030;1.822;2022-10-22T22:43:09;100426.72;;;20.66;56.48
62544;BME280;48597;49.030;1.822;2022-10-22T22:45:35;100430.38;;;20.65;56.39
62544;BME280;48597;49.030;1.822;2022-10-22T22:48:02;100433.06;;;20.65;56.53
62544;BME280;48597;49.030;1.822;2022-10-22T22:50:29;100431.41;;;20.64;56.43
62544;BME280;48597;49.030;1.822;2022-10-22T22:52:55;100426.88;;;20.64;56.39
62544;BME280;48597;49.030;1.822;2022-10-22T22:55:21;100428.72;;;20.64;56.46
62544;BME280;48597;49.030;1.822;2022-10-22T22:57:47;100410.16;;;20.62;56.39
62544;BME280;48597;49.030;1.822;2022-10-22T23:00:13;100417.16;;;20.63;56.45
62544;BME280;48597;49.030;1.822;2022-10-22T23:02:39;100414.50;;;20.63;56.51
62544;BME280;48597;49.030;1.822;2022-10-22T23:05:05;100410.16;;;20.62;56.42
62544;BME280;48597;49.030;1.822;2022-10-22T23:07:30;100395.13;;;20.61;56.64
62544;BME280;48597;49.030;1.822;2022-10-22T23:09:56;100395.97;;;20.62;56.44
62544;BME280;48597;49.030;1.822;2022-10-22T23:12:21;100380.09;;;20.60;56.57
62544;BME280;48597;49.030;1.822;2022-10-22T23:14:49;100387.09;;;20.61;56.22
62544;BME280;48597;49.030;1.822;2022-10-22T23:17:15;100384.44;;;20.61;56.37
62544;BME280;48597;49.030;1.822;2022-10-22T23:19:40;100372.91;;;20.61;56.36
62544;BME280;48597;49.030;1.822;2022-10-22T23:22:05;100376.41;;;20.61;56.40
62544;BME280;48597;49.030;1.822;2022-10-22T23:24:31;100371.25;;;20.59;56.33
62544;BME280;48597;49.030;1.822;2022-10-22T23:27:00;100365.03;;;20.59;56.36
62544;BME280;48597;49.030;1.822;2022-10-22T23:29:28;100363.22;;;20.59;56.34
62544;BME280;48597;49.030;1.822;2022-10-22T23:31:59;100357.88;;;20.59;56.31
62544;BME280;48597;49.030;1.822;2022-10-22T23:34:25;100363.38;;;20.58;56.27
62544;BME280;48597;49.030;1.822;2022-10-22T23:36:53;100364.19;;;20.58;56.38
62544;BME280;48597;49.030;1.822;2022-10-22T23:39:21;100357.00;;;20.59;56.33
62544;BME280;48597;49.030;1.822;2022-10-22T23:41:47;100353.50;;;20.58;56.23
62544;BME280;48597;49.030;1.822;2022-10-22T23:44:12;100358.03;;;20.58;56.15
62544;BME280;48597;49.030;1.822;2022-10-22T23:46:38;100359.03;;;20.57;56.09
62544;BME280;48597;49.030;1.822;2022-10-22T23:49:05;100365.22;;;20.57;56.20
62544;BME280;48597;49.030;1.822;2022-10-22T23:51:31;100355.34;;;20.58;56.17
62544;BME280;48597;49.030;1.822;2022-10-22T23:53:58;100350.19;;;20.56;56.25
62544;BME280;48597;49.030;1.822;2022-10-22T23:56:24;100336.81;;;20.56;56.18
62544;BME280;48597;49.030;1.822;2022-10-22T23:58:51;100337.66;;;20.57;56.20
